Time;durP1;ratioP1;P1;durP2;ratioP2;P2;SDS_P1;SDS_P2;PMS_P1;PMS_P2;Temp;Humidity;BMP_temperature;BMP_pressure;BME280_temperature;BME280_humidity;BME280_pressure;Samples;Min_cycle;Max_cycle;Signal;HPM_P1;HPM_P2
2023/12/19 00:00:45;;;;;;;27.15;17.63;;;2.90;99.90;;;;;;2084320;28;20109;-80
2023/12/19 00:01:46;;;;;;;27.70;17.23;;;2.90;99.90;;;;;;2083191;28;20024;-81
2023/12/19 00:02:47;;;;;;;27.40;16.77;;;2.90;99.90;;;;;;2075487;28;20032;-81
2023/12/19 00:03:47;;;;;;;26.80;17.38;;;2.90;99.90;;;;;;2077520;28;20095;-80
2023/12/19 00:04:48;;;;;;;25.90;17.13;;;2.90;99.90;;;;;;2075245;28;20029;-82
2023/12/19 00:05:49;;;;;;;29.23;17.27;;;2.90;99.90;;;;;;2075288;28;20075;-80
2023/12/19 00:06:49;;;;;;;26.63;16.73;;;2.90;99.90;;;;;;2079597;28;20118;-80
2023/12/19 00:07:50;;;;;;;27.27;17.45;;;2.90;99.90;;;;;;2069816;28;20149;-80
2023/12/19 00:08:51;;;;;;;26.92;17.48;;;2.90;99.90;;;;;;2075315;28;20409;-81
2023/12/19 00:09:51;;;;;;;27.42;17.00;;;2.90;99.90;;;;;;2084502;28;20052;-81
2023/12/19 00:10:52;;;;;;;26.50;15.77;;;3.00;99.90;;;;;;2083196;28;20482;-81
2023/12/19 00:11:52;;;;;;;26.27;15.63;;;2.90;99.90;;;;;;2076003;28;20044;-80
2023/12/19 00:12:53;;;;;;;26.58;16.90;;;3.00;99.90;;;;;;2075406;28;20029;-81
2023/12/19 00:13:53;;;;;;;27.25;16.38;;;3.00;99.90;;;;;;2074706;28;20116;-81
2023/12/19 00:14:54;;;;;;;27.02;16.33;;;3.00;99.90;;;;;;2075526;28;20029;-79
2023/12/19 00:15:54;;;;;;;27.55;16.90;;;3.10;99.90;;;;;;2083407;28;20102;-81
2023/12/19 00:16:55;;;;;;;24.10;15.45;;;3.10;99.90;;;;;;2084835;28;20039;-79
2023/12/19 00:17:56;;;;;;;25.77;15.63;;;3.10;99.90;;;;;;2084478;28;20032;-79
2023/12/19 00:18:56;;;;;;;24.92;15.40;;;3.10;99.90;;;;;;2075554;28;20033;-80
2023/12/19 00:19:57;;;;;;;25.55;15.93;;;3.20;99.90;;;;;;2083057;28;20029;-80
2023/12/19 00:20:57;;;;;;;25.67;15.63;;;3.20;99.90;;;;;;2084517;28;20031;-80
2023/12/19 00:21:58;;;;;;;26.08;15.65;;;3.20;99.90;;;;;;2076342;28;20123;-79
2023/12/19 00:22:58;;;;;;;25.92;16.20;;;3.30;99.90;;;;;;2076658;28;20180;-77
2023/12/19 00:23:59;;;;;;;27.65;16.27;;;3.30;99.90;;;;;;2082807;28;20029;-80
2023/12/19 00:24:59;;;;;;;26.75;16.20;;;3.30;99.90;;;;;;2082587;28;20086;-71
2023/12/19 00:26:00;;;;;;;27.33;16.00;;;3.30;99.90;;;;;;2083797;28;20098;-75
2023/12/19 00:27:00;;;;;;;28.55;16.40;;;3.30;99.90;;;;;;2082833;28;20230;-70
2023/12/19 00:28:01;;;;;;;33.83;18.25;;;3.30;99.90;;;;;;2082867;28;20147;-81
2023/12/19 00:29:01;;;;;;;30.40;17.48;;;3.30;99.90;;;;;;2082576;28;20032;-77
2023/12/19 00:30:02;;;;;;;30.88;18.38;;;3.30;99.90;;;;;;2081303;28;20091;-76
2023/12/19 00:31:03;;;;;;;34.42;17.95;;;3.40;99.90;;;;;;2081802;28;20045;-77
2023/12/19 00:32:04;;;;;;;27.35;16.48;;;3.40;99.90;;;;;;2080156;28;20039;-78
2023/12/19 00:33:05;;;;;;;27.70;15.82;;;3.40;99.90;;;;;;2074984;28;20030;-78
2023/12/19 00:34:05;;;;;;;27.63;15.95;;;3.40;99.90;;;;;;2075023;28;20033;-76
2023/12/19 00:35:06;;;;;;;25.27;15.35;;;3.50;99.90;;;;;;2076522;28;20092;-76
2023/12/19 00:36:07;;;;;;;26.02;15.60;;;3.50;99.90;;;;;;2075068;28;20167;-77
2023/12/19 00:37:08;;;;;;;25.98;15.73;;;3.50;99.90;;;;;;2068665;28;20030;-78
2023/12/19 00:38:09;;;;;;;26.05;15.88;;;3.50;99.90;;;;;;2059891;28;20034;-77
2023/12/19 00:39:09;;;;;;;28.08;16.38;;;3.50;99.90;;;;;;2068666;28;20492;-75
2023/12/19 00:40:13;;;;;;;24.27;15.38;;;3.60;99.90;;;;;;2058585;28;20263;-76
2023/12/19 00:41:14;;;;;;;22.63;14.70;;;3.60;99.90;;;;;;2066995;28;20045;-76
2023/12/19 00:42:15;;;;;;;22.00;14.20;;;3.60;99.90;;;;;;2067630;28;20072;-77
2023/12/19 00:43:15;;;;;;;28.33;16.38;;;3.60;99.90;;;;;;2060648;28;20126;-76
2023/12/19 00:44:16;;;;;;;28.23;15.85;;;3.70;99.90;;;;;;2077887;28;20056;-77
2023/12/19 00:45:17;;;;;;;28.70;15.88;;;3.70;99.90;;;;;;2084532;28;20032;-77
2023/12/19 00:46:17;;;;;;;27.65;15.85;;;3.70;99.90;;;;;;2073919;28;20447;-76
2023/12/19 00:47:18;;;;;;;29.38;15.02;;;3.70;99.90;;;;;;2075265;28;20042;-77
2023/12/19 00:48:18;;;;;;;22.48;14.60;;;3.80;99.90;;;;;;2075118;28;20060;-77
2023/12/19 00:49:19;;;;;;;26.35;15.25;;;3.80;99.90;;;;;;2075402;28;20057;-77
2023/12/19 00:50:19;;;;;;;34.50;17.00;;;3.80;99.90;;;;;;2074204;28;20124;-76
2023/12/19 00:51:21;;;;;;;33.83;17.20;;;3.80;99.90;;;;;;2075675;28;20096;-76
2023/12/19 00:52:21;;;;;;;25.30;14.38;;;3.80;99.90;;;;;;2082657;28;20411;-76
2023/12/19 00:53:23;;;;;;;23.95;14.65;;;3.80;99.90;;;;;;2074336;28;20025;-75
2023/12/19 00:54:23;;;;;;;28.30;15.50;;;3.90;99.90;;;;;;2076016;28;20487;-75
2023/12/19 00:55:24;;;;;;;24.85;14.68;;;3.90;99.90;;;;;;2074243;28;20025;-75
2023/12/19 00:56:25;;;;;;;26.27;15.95;;;3.90;99.90;;;;;;2074576;28;20592;-75
2023/12/19 00:57:25;;;;;;;24.42;14.82;;;3.90;99.90;;;;;;2075789;28;20068;-77
2023/12/19 00:58:26;;;;;;;26.67;15.15;;;4.00;99.90;;;;;;2066296;28;20037;-77
2023/12/19 00:59:26;;;;;;;24.05;13.48;;;4.00;99.90;;;;;;2074436;28;20426;-78
2023/12/19 01:00:27;;;;;;;21.27;13.00;;;4.00;99.90;;;;;;2074174;28;20561;-75
2023/12/19 01:01:28;;;;;;;23.25;14.10;;;4.10;99.90;;;;;;2075656;28;20025;-76
2023/12/19 01:02:29;;;;;;;22.13;13.90;;;4.10;99.90;;;;;;2078007;28;20106;-75
2023/12/19 01:03:29;;;;;;;21.60;13.93;;;4.20;99.90;;;;;;2079790;28;20454;-76
2023/12/19 01:04:30;;;;;;;20.92;13.15;;;4.20;99.90;;;;;;2083243;28;20265;-76
2023/12/19 01:05:31;;;;;;;21.73;13.00;;;4.20;99.90;;;;;;2083910;28;20029;-76
2023/12/19 01:06:31;;;;;;;21.52;12.40;;;4.20;99.90;;;;;;2074590;28;20029;-75
2023/12/19 01:07:32;;;;;;;23.20;13.02;;;4.30;99.90;;;;;;2077236;28;20060;-76
2023/12/19 01:08:32;;;;;;;21.83;13.00;;;4.30;99.90;;;;;;2073024;28;20558;-77
2023/12/19 01:09:33;;;;;;;19.58;12.40;;;4.30;99.90;;;;;;2074473;28;20025;-77
2023/12/19 01:10:33;;;;;;;23.40;13.10;;;4.30;99.90;;;;;;2073981;28;20083;-76
2023/12/19 01:11:34;;;;;;;23.67;13.32;;;4.40;99.90;;;;;;2075079;28;20080;-77
2023/12/19 01:12:34;;;;;;;23.90;13.35;;;4.40;99.90;;;;;;2075042;28;20297;-76
2023/12/19 01:13:38;;;;;;;25.95;13.85;;;4.40;99.90;;;;;;2075205;28;20044;-76
2023/12/19 01:14:39;;;;;;;26.05;14.15;;;4.50;99.90;;;;;;2076172;28;20099;-76
2023/12/19 01:15:40;;;;;;;19.85;12.85;;;4.50;99.90;;;;;;2074209;28;20025;-77
2023/12/19 01:16:40;;;;;;;22.90;13.68;;;4.50;99.90;;;;;;2072005;28;20033;-74
2023/12/19 01:17:42;;;;;;;20.10;13.15;;;4.50;99.90;;;;;;2067051;28;20145;-74
2023/12/19 01:18:42;;;;;;;19.67;12.60;;;4.50;99.90;;;;;;2074596;28;20087;-75
2023/12/19 01:19:43;;;;;;;18.90;12.98;;;4.50;99.90;;;;;;2074985;28;20033;-77
2023/12/19 01:20:44;;;;;;;19.73;13.10;;;4.50;99.90;;;;;;2075674;28;20535;-75
2023/12/19 01:21:45;;;;;;;27.40;14.52;;;4.50;99.90;;;;;;2074245;28;20165;-76
2023/12/19 01:22:46;;;;;;;24.75;14.18;;;4.50;99.90;;;;;;2083124;28;20044;-76
2023/12/19 01:23:46;;;;;;;22.90;12.73;;;4.50;99.90;;;;;;2083079;28;20063;-75
2023/12/19 01:24:47;;;;;;;25.13;13.70;;;4.50;99.90;;;;;;2075376;28;20025;-76
2023/12/19 01:25:47;;;;;;;24.60;13.55;;;4.40;99.90;;;;;;2075600;28;20086;-76
2023/12/19 01:26:49;;;;;;;21.75;13.18;;;4.40;99.90;;;;;;2075693;28;20703;-76
2023/12/19 01:27:49;;;;;;;21.67;13.00;;;4.40;99.90;;;;;;2082519;28;20519;-77
2023/12/19 01:28:50;;;;;;;21.23;13.25;;;4.30;99.90;;;;;;2074222;28;20060;-75
2023/12/19 01:29:50;;;;;;;21.27;12.90;;;4.30;99.90;;;;;;2072199;28;20037;-76
2023/12/19 01:30:51;;;;;;;19.10;12.30;;;4.30;99.90;;;;;;2081627;28;20047;-77
2023/12/19 01:31:53;;;;;;;23.50;13.32;;;4.30;99.90;;;;;;2079323;28;20020;-77
2023/12/19 01:32:53;;;;;;;18.88;12.82;;;4.30;99.90;;;;;;2082524;28;20032;-76
2023/12/19 01:33:54;;;;;;;21.10;13.32;;;4.30;99.90;;;;;;2083064;28;20562;-76
2023/12/19 01:34:55;;;;;;;22.23;13.32;;;4.20;99.90;;;;;;2083234;28;20504;-76
2023/12/19 01:35:55;;;;;;;21.30;13.50;;;4.20;99.90;;;;;;2075075;28;20037;-77
2023/12/19 01:36:56;;;;;;;22.60;13.10;;;4.10;99.90;;;;;;2073249;28;20045;-77
2023/12/19 01:37:57;;;;;;;23.08;13.63;;;4.10;99.90;;;;;;2076538;28;20171;-75
2023/12/19 01:38:57;;;;;;;19.30;12.57;;;4.10;99.90;;;;;;2074787;28;20112;-75
2023/12/19 01:39:58;;;;;;;23.90;13.45;;;4.10;99.90;;;;;;2074586;28;20077;-71
2023/12/19 01:40:58;;;;;;;23.13;13.85;;;4.10;99.90;;;;;;2075001;28;20474;-71
2023/12/19 01:41:59;;;;;;;22.23;13.75;;;4.00;99.90;;;;;;2074949;28;20492;-72
2023/12/19 01:43:00;;;;;;;21.98;13.07;;;4.00;99.90;;;;;;2077427;28;20046;-71
2023/12/19 01:44:01;;;;;;;19.95;13.02;;;4.00;99.90;;;;;;2078354;28;20036;-71
2023/12/19 01:45:10;;;;;;;21.05;13.07;;;4.00;99.90;;;;;;2076095;28;20493;-71
2023/12/19 01:46:15;;;;;;;22.83;14.27;;;3.90;99.90;;;;;;2075221;28;20079;-71
2023/12/19 01:47:15;;;;;;;28.10;17.15;;;3.80;99.90;;;;;;2071306;28;20088;-71
2023/12/19 01:48:17;;;;;;;29.00;17.33;;;3.80;99.90;;;;;;2078165;28;20103;-71
2023/12/19 01:49:18;;;;;;;24.83;15.52;;;3.70;99.90;;;;;;2070599;28;20084;-71
2023/12/19 01:50:19;;;;;;;27.23;16.98;;;3.80;99.90;;;;;;2071190;28;20044;-71
2023/12/19 01:51:20;;;;;;;24.38;15.35;;;3.70;99.90;;;;;;2076635;28;20322;-71
2023/12/19 01:52:21;;;;;;;20.40;13.15;;;3.70;99.90;;;;;;2083078;28;20040;-70
2023/12/19 01:53:23;;;;;;;21.13;13.60;;;3.80;99.90;;;;;;2085386;28;20041;-71
2023/12/19 01:54:24;;;;;;;23.45;14.38;;;3.80;99.90;;;;;;2085323;28;20044;-70
2023/12/19 01:55:26;;;;;;;25.45;14.75;;;3.80;99.90;;;;;;2084904;28;20429;-71
2023/12/19 01:56:27;;;;;;;25.08;13.00;;;3.80;99.90;;;;;;2077860;28;20337;-72
2023/12/19 01:57:28;;;;;;;21.50;13.40;;;3.80;99.90;;;;;;2076920;28;20515;-71
2023/12/19 01:58:30;;;;;;;22.52;13.63;;;3.90;99.90;;;;;;2086093;28;20041;-72
2023/12/19 01:59:31;;;;;;;21.13;13.07;;;3.90;99.90;;;;;;2078057;28;20144;-71
2023/12/19 02:00:33;;;;;;;20.00;12.45;;;4.00;99.90;;;;;;2080272;28;20111;-71
2023/12/19 02:01:35;;;;;;;23.85;14.70;;;4.00;99.90;;;;;;2079333;28;20127;-72
2023/12/19 02:02:36;;;;;;;28.33;15.32;;;4.00;99.90;;;;;;2077366;28;20536;-72
2023/12/19 02:03:36;;;;;;;20.23;13.00;;;4.00;99.90;;;;;;2084751;28;20083;-72
2023/12/19 02:04:37;;;;;;;23.80;13.20;;;4.00;99.90;;;;;;2082462;28;20154;-71
2023/12/19 02:05:41;;;;;;;21.00;12.98;;;4.00;99.90;;;;;;2079877;28;20045;-72
2023/12/19 02:06:41;;;;;;;21.80;13.25;;;4.00;99.90;;;;;;2076753;28;20056;-72
2023/12/19 02:07:43;;;;;;;22.85;13.00;;;3.90;99.90;;;;;;2085416;28;20498;-72
2023/12/19 02:08:44;;;;;;;23.67;13.57;;;4.00;99.90;;;;;;2080704;28;20119;-72
2023/12/19 02:09:45;;;;;;;24.00;14.18;;;4.00;99.90;;;;;;2075942;28;20405;-73
2023/12/19 02:10:45;;;;;;;22.70;13.25;;;3.90;99.90;;;;;;2071558;28;20041;-72
2023/12/19 02:11:46;;;;;;;22.35;13.70;;;3.90;99.90;;;;;;2070912;28;20029;-72
2023/12/19 02:12:47;;;;;;;22.55;13.38;;;3.90;99.90;;;;;;2067868;28;20076;-72
2023/12/19 02:13:47;;;;;;;22.13;13.48;;;3.90;99.90;;;;;;2079314;28;20136;-72
2023/12/19 02:14:49;;;;;;;21.45;13.38;;;3.90;99.90;;;;;;2075723;28;20025;-71
2023/12/19 02:15:50;;;;;;;20.40;12.38;;;3.80;99.90;;;;;;2076689;28;20041;-71
2023/12/19 02:16:51;;;;;;;20.05;12.20;;;3.80;99.90;;;;;;2079505;28;20098;-71
2023/12/19 02:17:51;;;;;;;19.48;12.60;;;3.80;99.90;;;;;;2076548;28;20030;-71
2023/12/19 02:19:02;;;;;;;21.27;13.20;;;3.80;99.90;;;;;;2076230;28;20036;-70
2023/12/19 02:20:03;;;;;;;23.20;13.27;;;3.80;99.90;;;;;;2076282;28;20474;-71
2023/12/19 02:21:04;;;;;;;22.02;13.18;;;3.80;99.90;;;;;;2084561;28;20549;-72
2023/12/19 02:22:05;;;;;;;19.25;12.68;;;3.70;99.90;;;;;;2087555;28;20036;-71
2023/12/19 02:23:05;;;;;;;20.30;12.90;;;3.70;99.90;;;;;;2075939;28;20060;-72
2023/12/19 02:24:06;;;;;;;20.08;13.30;;;3.70;99.90;;;;;;2075414;28;20021;-71
2023/12/19 02:25:07;;;;;;;19.57;12.57;;;3.70;99.90;;;;;;2076441;28;20021;-72
2023/12/19 02:26:08;;;;;;;21.38;13.27;;;3.70;99.90;;;;;;2079331;28;20036;-71
2023/12/19 02:27:09;;;;;;;20.88;12.68;;;3.60;99.90;;;;;;2080296;28;20444;-72
2023/12/19 02:28:10;;;;;;;22.02;12.77;;;3.60;99.90;;;;;;2076110;28;20037;-71
2023/12/19 02:29:11;;;;;;;18.88;12.68;;;3.50;99.90;;;;;;2079596;28;20060;-72
2023/12/19 02:30:12;;;;;;;20.10;12.40;;;3.50;99.90;;;;;;2071214;28;20551;-71
2023/12/19 02:31:13;;;;;;;20.73;13.55;;;3.50;99.90;;;;;;2075181;28;20126;-72
2023/12/19 02:32:13;;;;;;;22.02;13.63;;;3.40;99.90;;;;;;2070812;28;20029;-72
2023/12/19 02:33:14;;;;;;;22.45;13.25;;;3.40;99.90;;;;;;2072615;28;20032;-72
2023/12/19 02:34:15;;;;;;;22.85;13.60;;;3.40;99.90;;;;;;2075467;28;20042;-72
2023/12/19 02:35:16;;;;;;;20.73;12.98;;;3.50;99.90;;;;;;2087275;28;20033;-72
2023/12/19 02:36:16;;;;;;;21.08;13.15;;;3.50;99.90;;;;;;2087740;28;20074;-72
2023/12/19 02:37:17;;;;;;;24.08;14.23;;;3.50;99.90;;;;;;2075763;28;20475;-72
2023/12/19 02:38:18;;;;;;;24.63;14.68;;;3.50;99.90;;;;;;2079334;28;20041;-71
2023/12/19 02:39:18;;;;;;;20.80;12.90;;;3.40;99.90;;;;;;2083654;28;20044;-71
2023/12/19 02:40:19;;;;;;;21.27;13.20;;;3.40;99.90;;;;;;2084169;28;20039;-71
2023/12/19 02:41:19;;;;;;;20.45;13.02;;;3.40;99.90;;;;;;2076970;28;20084;-72
2023/12/19 02:42:20;;;;;;;19.00;12.45;;;3.40;99.90;;;;;;2080127;28;20120;-72
2023/12/19 02:43:20;;;;;;;18.40;12.02;;;3.50;99.90;;;;;;2084340;28;20029;-72
2023/12/19 02:44:21;;;;;;;18.75;11.90;;;3.50;99.90;;;;;;2086788;28;20025;-71
2023/12/19 02:45:22;;;;;;;19.83;11.82;;;3.50;99.90;;;;;;2080322;28;20033;-72
2023/12/19 02:46:25;;;;;;;18.58;11.88;;;3.40;99.90;;;;;;2083666;28;20111;-73
2023/12/19 02:47:26;;;;;;;17.63;11.25;;;3.40;99.90;;;;;;2082086;28;20470;-71
2023/12/19 02:48:26;;;;;;;17.38;11.10;;;3.40;99.90;;;;;;2080833;28;20021;-71
2023/12/19 02:49:27;;;;;;;18.58;11.13;;;3.40;99.90;;;;;;2080066;28;20268;-72
2023/12/19 02:50:27;;;;;;;18.85;11.90;;;3.40;99.90;;;;;;2077678;28;20040;-70
2023/12/19 02:51:29;;;;;;;19.63;11.45;;;3.40;99.90;;;;;;2079530;28;20022;-73
2023/12/19 02:52:30;;;;;;;20.20;11.70;;;3.40;99.90;;;;;;2078034;28;20419;-72
2023/12/19 02:53:30;;;;;;;21.45;12.10;;;3.40;99.90;;;;;;2077379;28;20014;-71
2023/12/19 02:54:31;;;;;;;24.73;12.20;;;3.40;99.90;;;;;;2077418;28;20029;-73
2023/12/19 02:55:32;;;;;;;19.25;11.68;;;3.40;99.90;;;;;;2078126;28;20300;-73
2023/12/19 02:56:34;;;;;;;21.70;12.23;;;3.40;99.90;;;;;;2075468;28;20435;-72
2023/12/19 02:57:34;;;;;;;21.45;11.82;;;3.40;99.90;;;;;;2079533;28;20024;-72
2023/12/19 02:58:35;;;;;;;19.10;11.68;;;3.30;99.90;;;;;;2077614;28;20025;-72
2023/12/19 02:59:35;;;;;;;18.52;11.80;;;3.30;99.90;;;;;;2077156;28;20097;-71
2023/12/19 03:00:36;;;;;;;22.30;11.90;;;3.30;99.90;;;;;;2077796;28;20091;-71
2023/12/19 03:01:36;;;;;;;18.10;11.98;;;3.30;99.90;;;;;;2088004;28;20067;-71
2023/12/19 03:02:37;;;;;;;21.77;12.55;;;3.30;99.90;;;;;;2086174;28;20028;-72
2023/12/19 03:03:42;;;;;;;23.20;12.88;;;3.30;99.90;;;;;;2086330;28;20091;-72
2023/12/19 03:04:42;;;;;;;19.92;11.93;;;3.30;99.90;;;;;;2088063;28;20099;-72
2023/12/19 03:05:43;;;;;;;20.85;11.60;;;3.20;99.90;;;;;;2083049;28;20033;-72
2023/12/19 03:06:44;;;;;;;23.73;12.05;;;3.20;99.90;;;;;;2075896;28;20483;-72
2023/12/19 03:07:44;;;;;;;20.27;11.80;;;3.20;99.90;;;;;;2076081;28;20653;-72
2023/12/19 03:08:46;;;;;;;22.30;11.80;;;3.20;99.90;;;;;;2075775;28;20022;-72
2023/12/19 03:09:47;;;;;;;18.15;10.48;;;3.20;99.90;;;;;;2079140;28;20395;-72
2023/12/19 03:10:47;;;;;;;17.27;10.38;;;3.30;99.90;;;;;;2075480;28;20039;-71
2023/12/19 03:12:04;;;;;;;17.85;11.20;;;3.40;99.90;;;;;;2070939;28;20026;-71
2023/12/19 03:13:05;;;;;;;16.70;10.57;;;3.40;99.90;;;;;;2077209;28;20024;-71
2023/12/19 03:14:05;;;;;;;18.08;10.70;;;3.50;99.90;;;;;;2077729;28;20030;-71
2023/12/19 03:15:06;;;;;;;22.23;11.68;;;3.50;99.90;;;;;;2078005;28;20017;-72
2023/12/19 03:16:07;;;;;;;18.88;11.40;;;3.40;99.90;;;;;;2079796;28;20024;-71
2023/12/19 03:17:07;;;;;;;20.35;11.10;;;3.40;99.90;;;;;;2078365;28;20029;-72
2023/12/19 03:18:08;;;;;;;20.88;11.50;;;3.40;99.90;;;;;;2077655;28;20037;-71
2023/12/19 03:19:08;;;;;;;19.48;10.68;;;3.50;99.90;;;;;;2079575;28;20037;-72
2023/12/19 03:20:09;;;;;;;20.10;10.98;;;3.40;99.90;;;;;;2078165;28;20091;-72
2023/12/19 03:21:10;;;;;;;20.92;11.05;;;3.40;99.90;;;;;;2077528;28;20530;-72
2023/12/19 03:22:10;;;;;;;20.13;11.30;;;3.40;99.90;;;;;;2078934;28;20033;-72
2023/12/19 03:23:11;;;;;;;16.33;10.65;;;3.40;99.90;;;;;;2074828;28;20037;-72
2023/12/19 03:24:11;;;;;;;19.55;10.73;;;3.50;99.90;;;;;;2083159;28;20486;-70
2023/12/19 03:25:12;;;;;;;19.25;10.93;;;3.40;99.90;;;;;;2087223;28;20031;-71
2023/12/19 03:26:12;;;;;;;19.63;11.32;;;3.40;99.90;;;;;;2086177;28;20099;-70
2023/12/19 03:27:13;;;;;;;18.65;10.45;;;3.40;99.90;;;;;;2076707;28;20034;-71
2023/12/19 03:28:14;;;;;;;23.30;11.60;;;3.40;99.90;;;;;;2083638;28;20112;-71
2023/12/19 03:29:15;;;;;;;22.52;11.40;;;3.50;99.90;;;;;;2080649;28;20037;-70
2023/12/19 03:30:15;;;;;;;28.02;12.90;;;3.50;99.90;;;;;;2076518;28;20057;-72
2023/12/19 03:31:16;;;;;;;25.30;10.63;;;3.50;99.90;;;;;;2079028;28;20037;-72
2023/12/19 03:32:16;;;;;;;15.73;8.55;;;3.60;99.90;;;;;;2074387;28;20064;-78
2023/12/19 03:33:17;;;;;;;21.83;9.85;;;3.60;99.90;;;;;;2075261;28;20108;-70
2023/12/19 03:34:17;;;;;;;15.55;8.50;;;3.70;99.90;;;;;;2075069;28;20021;-72
2023/12/19 03:35:18;;;;;;;20.15;9.63;;;3.80;99.90;;;;;;2075201;28;20132;-72
2023/12/19 03:36:18;;;;;;;14.27;7.65;;;3.80;99.90;;;;;;2078403;28;20079;-72
2023/12/19 03:37:19;;;;;;;22.55;10.05;;;3.90;99.90;;;;;;2076110;28;20099;-72
2023/12/19 03:38:19;;;;;;;17.63;8.73;;;3.90;99.90;;;;;;2079701;28;20426;-72
2023/12/19 03:39:20;;;;;;;13.80;8.65;;;3.90;99.90;;;;;;2075940;28;20088;-71
2023/12/19 03:40:20;;;;;;;18.27;9.60;;;3.90;99.90;;;;;;2076174;28;20022;-71
2023/12/19 03:41:21;;;;;;;14.77;8.90;;;4.00;99.90;;;;;;2079966;28;20698;-71
2023/12/19 03:42:22;;;;;;;12.77;7.78;;;4.00;99.90;;;;;;2074848;28;20033;-71
2023/12/19 03:43:23;;;;;;;18.38;8.25;;;4.00;99.90;;;;;;2074909;28;20029;-72
2023/12/19 03:44:23;;;;;;;14.88;8.15;;;4.10;99.90;;;;;;2087009;28;20346;-72
2023/12/19 03:45:24;;;;;;;14.40;7.60;;;4.10;99.90;;;;;;2079089;28;20100;-71
2023/12/19 03:46:24;;;;;;;9.13;4.85;;;4.10;99.90;;;;;;2079621;28;20025;-72
2023/12/19 03:47:25;;;;;;;13.18;6.07;;;4.30;99.90;;;;;;2079345;28;20561;-71
2023/12/19 03:48:25;;;;;;;12.02;7.10;;;4.40;99.90;;;;;;2079552;28;20024;-71
2023/12/19 03:49:26;;;;;;;7.10;4.70;;;4.50;99.90;;;;;;2074836;28;20033;-72
2023/12/19 03:50:27;;;;;;;10.90;7.07;;;4.60;99.90;;;;;;2066705;28;20026;-71
2023/12/19 03:51:27;;;;;;;12.40;6.80;;;4.70;99.90;;;;;;2078760;28;20052;-71
2023/12/19 03:52:28;;;;;;;10.45;6.30;;;4.70;99.90;;;;;;2076073;28;20025;-71
2023/12/19 03:53:28;;;;;;;9.73;6.15;;;4.70;99.90;;;;;;2078902;28;20490;-72
2023/12/19 03:54:29;;;;;;;8.88;5.38;;;4.70;99.90;;;;;;2086233;28;20047;-73
2023/12/19 03:55:30;;;;;;;9.05;6.05;;;4.70;99.90;;;;;;2086946;28;20483;-71
2023/12/19 03:56:30;;;;;;;9.55;5.47;;;4.70;99.90;;;;;;2075251;28;20029;-71
2023/12/19 03:57:31;;;;;;;8.85;5.40;;;4.70;99.90;;;;;;2075618;28;20317;-72
2023/12/19 03:58:31;;;;;;;7.80;5.03;;;4.70;99.90;;;;;;2077617;28;20018;-72
2023/12/19 03:59:32;;;;;;;8.73;5.40;;;4.70;99.90;;;;;;2075327;28;20030;-72
2023/12/19 04:00:32;;;;;;;9.13;5.00;;;4.70;99.90;;;;;;2076652;28;20041;-71
2023/12/19 04:01:42;;;;;;;9.75;5.55;;;4.70;99.90;;;;;;2078337;28;20032;-72
2023/12/19 04:02:42;;;;;;;33.90;9.90;;;4.80;99.90;;;;;;2079341;28;20226;-71
2023/12/19 04:03:43;;;;;;;18.70;7.57;;;4.80;99.90;;;;;;2078234;28;20189;-72
2023/12/19 04:04:44;;;;;;;15.85;6.50;;;4.80;99.90;;;;;;2076807;28;20037;-72
2023/12/19 04:05:44;;;;;;;13.88;7.00;;;4.70;99.90;;;;;;2079050;28;20060;-72
2023/12/19 04:06:45;;;;;;;13.35;6.97;;;4.70;99.90;;;;;;2078075;28;20428;-71
2023/12/19 04:07:45;;;;;;;12.57;6.60;;;4.70;99.90;;;;;;2075629;28;20047;-71
2023/12/19 04:08:46;;;;;;;14.98;6.95;;;4.70;99.90;;;;;;2078606;28;20108;-71
2023/12/19 04:09:46;;;;;;;11.18;6.80;;;4.70;99.90;;;;;;2077686;28;20029;-72
2023/12/19 04:10:47;;;;;;;11.73;7.15;;;4.70;99.90;;;;;;2076406;28;20079;-71
2023/12/19 04:11:47;;;;;;;14.27;7.25;;;4.60;99.90;;;;;;2079375;28;20074;-72
2023/12/19 04:12:48;;;;;;;13.40;6.90;;;4.60;99.90;;;;;;2078590;28;20112;-72
2023/12/19 04:13:48;;;;;;;9.63;6.60;;;4.60;99.90;;;;;;2072414;28;20025;-72
2023/12/19 04:14:49;;;;;;;10.63;6.25;;;4.60;99.90;;;;;;2079567;28;20124;-73
2023/12/19 04:15:49;;;;;;;11.25;6.30;;;4.50;99.90;;;;;;2078821;28;20479;-71
2023/12/19 04:16:50;;;;;;;11.75;6.78;;;4.50;99.90;;;;;;2079531;28;20039;-71
2023/12/19 04:17:50;;;;;;;11.77;7.10;;;4.60;99.90;;;;;;2074191;28;20453;-71
2023/12/19 04:18:51;;;;;;;10.93;7.18;;;4.60;99.90;;;;;;2074523;28;20543;-72
2023/12/19 04:19:52;;;;;;;10.27;6.47;;;4.60;99.90;;;;;;2086564;28;20437;-72
2023/12/19 04:20:52;;;;;;;11.55;6.47;;;4.60;99.90;;;;;;2083228;28;20052;-72
2023/12/19 04:21:53;;;;;;;11.63;7.00;;;4.60;99.90;;;;;;2079297;28;20029;-72
2023/12/19 04:22:54;;;;;;;13.52;7.43;;;4.60;99.90;;;;;;2078901;28;20029;-71
2023/12/19 04:23:55;;;;;;;13.82;7.65;;;4.70;99.90;;;;;;2082748;28;20374;-71
2023/12/19 04:24:55;;;;;;;10.40;6.70;;;4.70;99.90;;;;;;2082916;28;20531;-71
2023/12/19 04:25:56;;;;;;;10.57;6.93;;;4.70;99.90;;;;;;2086791;28;20090;-71
2023/12/19 04:26:56;;;;;;;11.13;6.40;;;4.60;99.90;;;;;;2083008;28;20107;-72
2023/12/19 04:27:57;;;;;;;12.00;7.47;;;4.70;99.90;;;;;;2078693;28;20553;-70
2023/12/19 04:28:57;;;;;;;11.90;8.30;;;4.80;99.90;;;;;;2074689;28;20133;-71
2023/12/19 04:29:58;;;;;;;11.48;7.65;;;4.80;99.90;;;;;;2075416;28;20087;-73
2023/12/19 04:30:58;;;;;;;12.77;8.05;;;4.80;99.90;;;;;;2077566;28;20025;-71
2023/12/19 04:31:59;;;;;;;11.70;8.10;;;4.80;99.90;;;;;;2074755;28;20578;-73
2023/12/19 04:32:59;;;;;;;12.52;8.35;;;4.80;99.90;;;;;;2075776;28;20033;-72
2023/12/19 04:34:02;;;;;;;13.27;8.25;;;4.80;99.90;;;;;;2078688;28;20033;-71
2023/12/19 04:35:03;;;;;;;13.77;8.30;;;5.00;99.90;;;;;;2079228;28;20025;-72
2023/12/19 04:36:06;;;;;;;14.80;8.38;;;5.10;99.90;;;;;;2075954;28;20029;-72
2023/12/19 04:37:07;;;;;;;12.45;8.63;;;5.10;99.90;;;;;;2077336;28;20033;-72
2023/12/19 04:38:07;;;;;;;15.43;9.02;;;5.10;99.90;;;;;;2086694;28;20032;-72
2023/12/19 04:39:08;;;;;;;14.35;8.88;;;5.10;99.90;;;;;;2074809;28;20108;-72
2023/12/19 04:40:09;;;;;;;14.80;8.88;;;5.00;99.90;;;;;;2076070;28;20025;-71
2023/12/19 04:41:09;;;;;;;13.80;9.40;;;5.10;99.90;;;;;;2077544;28;20029;-71
2023/12/19 04:42:17;;;;;;;14.98;9.80;;;5.20;99.90;;;;;;2083851;28;20311;-72
2023/12/19 04:43:17;;;;;;;15.00;9.65;;;5.00;99.90;;;;;;2082528;28;20104;-72
2023/12/19 04:44:18;;;;;;;17.52;9.60;;;5.00;99.90;;;;;;2084980;28;20432;-71
2023/12/19 04:45:18;;;;;;;31.05;10.50;;;4.90;99.90;;;;;;2074601;28;20128;-71
2023/12/19 04:46:19;;;;;;;25.30;9.80;;;5.00;99.90;;;;;;2078478;28;20103;-71
2023/12/19 04:47:19;;;;;;;18.92;9.70;;;5.10;99.90;;;;;;2078633;28;20029;-71
2023/12/19 04:48:20;;;;;;;20.65;10.57;;;5.10;99.90;;;;;;2075915;28;20156;-70
2023/12/19 04:49:20;;;;;;;19.83;10.93;;;5.10;99.90;;;;;;2078970;28;20083;-70
2023/12/19 04:50:21;;;;;;;23.67;11.60;;;5.00;99.90;;;;;;2078431;28;20025;-70
2023/12/19 04:51:22;;;;;;;21.88;11.45;;;5.00;99.90;;;;;;2075783;28;20037;-72
2023/12/19 04:52:22;;;;;;;20.77;10.90;;;4.90;99.90;;;;;;2079230;28;20040;-72
2023/12/19 04:53:23;;;;;;;20.60;10.43;;;4.90;99.90;;;;;;2078895;28;20506;-72
2023/12/19 04:54:23;;;;;;;17.52;10.38;;;4.90;99.90;;;;;;2075496;28;20026;-71
2023/12/19 04:55:24;;;;;;;15.90;10.25;;;4.80;99.90;;;;;;2076414;28;20049;-72
2023/12/19 04:56:25;;;;;;;17.70;10.85;;;4.80;99.90;;;;;;2083406;28;20041;-71
2023/12/19 04:57:25;;;;;;;17.60;10.75;;;4.70;99.90;;;;;;2085690;28;20036;-72
2023/12/19 04:58:27;;;;;;;21.83;10.93;;;4.70;99.90;;;;;;2075894;28;20030;-72
2023/12/19 04:59:27;;;;;;;23.33;11.43;;;4.70;99.90;;;;;;2078365;28;20083;-72
2023/12/19 05:00:28;;;;;;;18.45;11.43;;;4.80;99.90;;;;;;2074517;28;20296;-72
2023/12/19 05:01:29;;;;;;;31.02;14.40;;;4.90;99.90;;;;;;2078543;28;20111;-71
2023/12/19 05:02:29;;;;;;;24.92;12.77;;;5.10;99.90;;;;;;2078988;28;20029;-70
2023/12/19 05:03:30;;;;;;;23.20;12.68;;;5.10;99.90;;;;;;2071132;28;20022;-71
2023/12/19 05:04:30;;;;;;;24.38;13.05;;;5.00;99.90;;;;;;2077721;28;20064;-71
2023/12/19 05:05:31;;;;;;;24.55;12.70;;;4.90;99.90;;;;;;2077764;28;20051;-72
2023/12/19 05:06:33;;;;;;;26.40;12.27;;;4.90;99.90;;;;;;2066902;28;20405;-72
2023/12/19 05:07:34;;;;;;;27.40;13.07;;;4.80;99.90;;;;;;2077451;28;20056;-71
2023/12/19 05:08:34;;;;;;;29.15;14.57;;;4.80;99.90;;;;;;2079194;28;20013;-71
2023/12/19 05:09:35;;;;;;;26.38;13.50;;;4.80;99.90;;;;;;2083505;28;20031;-71
2023/12/19 05:10:36;;;;;;;69.72;31.58;;;4.80;99.90;;;;;;2077359;28;20447;-70
2023/12/19 05:11:36;;;;;;;24.38;12.73;;;4.90;99.90;;;;;;2069990;28;20105;-71
2023/12/19 05:12:38;;;;;;;29.45;15.00;;;4.90;99.90;;;;;;2075271;28;20029;-71
2023/12/19 05:13:38;;;;;;;25.33;13.65;;;4.90;99.90;;;;;;2075002;28;20076;-71
2023/12/19 05:14:39;;;;;;;24.70;13.23;;;4.90;99.90;;;;;;2070018;28;20037;-71